createdAt,value
2018-01-10T00:00:58.743Z,4.75
2018-01-10T00:01:58.688Z,4.75
2018-01-10T00:02:58.706Z,4.65
2018-01-10T00:03:58.664Z,4.66
2018-01-10T00:04:58.637Z,4.67
2018-01-10T00:05:58.628Z,4.73
2018-01-10T00:06:58.607Z,4.72
2018-01-10T00:07:58.593Z,4.73
2018-01-10T00:08:58.387Z,4.73
2018-01-10T00:09:58.577Z,4.75
2018-01-10T00:10:58.571Z,4.72
2018-01-10T00:11:58.549Z,4.75
2018-01-10T00:12:58.529Z,4.67
2018-01-10T00:13:58.532Z,4.65
2018-01-10T00:14:58.510Z,4.67
2018-01-10T00:15:58.502Z,4.7
2018-01-10T00:16:58.484Z,4.55
2018-01-10T00:17:58.459Z,4.63
2018-01-10T00:18:58.454Z,4.66
2018-01-10T00:19:58.173Z,4.67
2018-01-10T00:20:58.421Z,4.7
2018-01-10T00:21:58.153Z,4.63
2018-01-10T00:22:58.398Z,4.7
2018-01-10T00:23:58.384Z,4.67
2018-01-10T00:24:58.366Z,4.63
2018-01-10T00:25:58.107Z,4.7
2018-01-10T00:26:58.348Z,4.62
2018-01-10T00:27:58.331Z,4.62
2018-01-10T00:28:58.311Z,4.72
2018-01-10T00:29:58.314Z,4.66
2018-01-10T00:30:58.022Z,4.7
2018-01-10T00:31:58.272Z,4.75
2018-01-10T00:32:58.250Z,4.6
2018-01-10T00:33:58.247Z,4.6
2018-01-10T00:34:58.235Z,4.48
2018-01-10T00:35:57.957Z,4.52
2018-01-10T00:36:58.204Z,4.47
2018-01-10T00:37:58.182Z,4.5
2018-01-10T00:38:58.170Z,4.52
2018-01-10T00:39:58.165Z,4.52
2018-01-10T00:40:58.144Z,4.48
2018-01-10T00:41:58.133Z,4.52
2018-01-10T00:42:58.131Z,4.5
2018-01-10T00:43:58.113Z,4.36
2018-01-10T00:44:58.094Z,4.47
2018-01-10T00:45:58.072Z,4.51
2018-01-10T00:46:58.069Z,4.4
2018-01-10T00:47:58.059Z,4.41
2018-01-10T00:48:58.036Z,4.37
2018-01-10T00:49:58.023Z,4.36
2018-01-10T00:50:58.008Z,4.36
2018-01-10T00:51:58.002Z,4.34
2018-01-10T00:52:57.986Z,4.34
2018-01-10T00:53:57.989Z,4.29
2018-01-10T00:54:57.951Z,4.36
2018-01-10T00:55:57.942Z,4.3
2018-01-10T00:56:57.914Z,4.34
2018-01-10T00:57:57.913Z,4.29
2018-01-10T00:58:57.893Z,4.33
2018-01-10T00:59:57.884Z,4.33
2018-01-10T01:00:57.869Z,4.33
2018-01-10T01:01:57.853Z,4.3
2018-01-10T01:02:57.837Z,4.4
2018-01-10T01:03:57.822Z,4.36
2018-01-10T01:04:57.815Z,4.33
2018-01-10T01:05:57.786Z,4.3
2018-01-10T01:06:57.790Z,4.29
2018-01-10T01:07:57.779Z,4.34
2018-01-10T01:08:57.747Z,4.27
2018-01-10T01:09:57.738Z,4.27
2018-01-10T01:10:57.720Z,4.24
2018-01-10T01:11:57.705Z,4.29
2018-01-10T01:12:57.711Z,4.16
2018-01-10T01:13:57.688Z,4.23
2018-01-10T01:14:57.661Z,4.22
2018-01-10T01:15:57.650Z,4.22
2018-01-10T01:16:57.635Z,4.12
2018-01-10T01:17:57.362Z,4.06
2018-01-10T01:18:57.609Z,4.14
2018-01-10T01:19:57.608Z,4.06
2018-01-10T01:20:57.578Z,4.06
2018-01-10T01:21:57.578Z,4.06
2018-01-10T01:22:57.303Z,4.02
2018-01-10T01:23:57.535Z,3.96
2018-01-10T01:24:57.529Z,3.94
2018-01-10T01:25:57.528Z,3.96
2018-01-10T01:26:57.501Z,3.93
2018-01-10T01:27:57.480Z,3.94
2018-01-10T01:28:57.477Z,3.93
2018-01-10T01:29:57.448Z,3.84
2018-01-10T01:30:57.454Z,3.83
2018-01-10T01:31:57.183Z,3.8
2018-01-10T01:32:57.415Z,3.73
2018-01-10T01:33:57.390Z,3.79
2018-01-10T01:34:57.381Z,3.72
2018-01-10T01:35:57.388Z,3.66
2018-01-10T01:36:57.354Z,3.72
2018-01-10T01:37:57.342Z,3.72
2018-01-10T01:38:57.339Z,3.66
2018-01-10T01:39:57.324Z,3.6
2018-01-10T01:40:57.316Z,3.58
2018-01-10T01:41:57.279Z,3.55
2018-01-10T01:42:57.269Z,3.48
2018-01-10T01:43:57.268Z,3.61
2018-01-10T01:44:56.989Z,3.6
2018-01-10T01:45:56.964Z,3.52
2018-01-10T01:46:57.210Z,3.55
2018-01-10T01:47:57.189Z,3.48
2018-01-10T01:48:57.173Z,3.48
2018-01-10T01:49:57.167Z,3.39
2018-01-10T01:50:57.159Z,3.48
2018-01-10T01:51:57.132Z,3.4
2018-01-10T01:52:56.874Z,3.51
2018-01-10T01:53:57.101Z,3.51
2018-01-10T01:54:57.097Z,3.47
2018-01-10T01:55:56.819Z,3.55
2018-01-10T01:56:57.057Z,3.51
2018-01-10T01:57:57.061Z,3.5
2018-01-10T01:58:57.026Z,3.45
2018-01-10T01:59:57.043Z,3.58
2018-01-10T02:00:57.014Z,3.48
2018-01-10T02:01:56.996Z,3.48
2018-01-10T02:02:56.976Z,3.54
2018-01-10T02:03:56.956Z,3.52
2018-01-10T02:04:56.945Z,3.58
2018-01-10T02:05:56.694Z,3.57
2018-01-10T02:06:56.913Z,3.55
2018-01-10T02:07:56.898Z,3.58
2018-01-10T02:08:56.897Z,3.5
2018-01-10T02:09:56.876Z,3.55
2018-01-10T02:10:56.868Z,3.62
2018-01-10T02:11:56.842Z,3.62
2018-01-10T02:12:56.831Z,3.54
2018-01-10T02:13:56.827Z,3.52
2018-01-10T02:14:56.794Z,3.48
2018-01-10T02:15:56.788Z,3.52
2018-01-10T02:16:56.777Z,3.55
2018-01-10T02:17:56.753Z,3.61
2018-01-10T02:18:56.750Z,3.65
2018-01-10T02:19:56.730Z,3.65
2018-01-10T02:20:56.709Z,3.66
2018-01-10T02:21:56.709Z,3.66
2018-01-10T02:22:56.683Z,3.65
2018-01-10T02:23:56.671Z,3.68
2018-01-10T02:24:56.656Z,3.7
2018-01-10T02:25:56.635Z,3.68
2018-01-10T02:26:56.626Z,3.66
2018-01-10T02:27:56.614Z,3.66
2018-01-10T02:28:56.599Z,3.61
2018-01-10T02:29:56.572Z,3.66
2018-01-10T02:30:56.572Z,3.66
2018-01-10T02:31:56.560Z,3.69
2018-01-10T02:32:56.551Z,3.66
2018-01-10T02:33:56.533Z,3.6
2018-01-10T02:34:56.504Z,3.58
2018-01-10T02:35:56.486Z,3.65
2018-01-10T02:36:56.481Z,3.62
2018-01-10T02:37:56.471Z,3.52
2018-01-10T02:38:56.498Z,3.55
2018-01-10T02:39:56.431Z,3.52
2018-01-10T02:40:56.423Z,3.52
2018-01-10T02:41:56.408Z,3.51
2018-01-10T02:42:56.395Z,3.58
2018-01-10T02:43:56.371Z,3.5
2018-01-10T02:44:56.396Z,3.51
2018-01-10T02:45:56.342Z,3.58
2018-01-10T02:46:56.334Z,3.61
2018-01-10T02:47:56.317Z,3.51
2018-01-10T02:48:56.307Z,3.6
2018-01-10T02:49:56.291Z,3.54
2018-01-10T02:50:56.294Z,3.6
2018-01-10T02:51:56.266Z,3.54
2018-01-10T02:52:56.280Z,3.58
2018-01-10T02:53:55.989Z,3.52
2018-01-10T02:54:56.225Z,3.52
2018-01-10T02:55:56.195Z,3.5
2018-01-10T02:56:56.190Z,3.68
2018-01-10T02:57:56.164Z,3.58
2018-01-10T02:58:56.152Z,3.6
2018-01-10T02:59:56.136Z,3.68
2018-01-10T03:00:56.145Z,3.7
2018-01-10T03:01:56.136Z,3.7
2018-01-10T03:02:56.104Z,3.75
2018-01-10T03:03:55.819Z,3.75
2018-01-10T03:04:56.080Z,3.73
2018-01-10T03:05:56.069Z,3.78
2018-01-10T03:06:56.045Z,3.7
2018-01-10T03:07:56.021Z,3.72
2018-01-10T03:08:56.017Z,3.76
2018-01-10T03:09:56.001Z,3.75
2018-01-10T03:10:55.726Z,3.8
2018-01-10T03:11:55.963Z,3.94
2018-01-10T03:12:55.951Z,3.88
2018-01-10T03:13:55.947Z,3.93
2018-01-10T03:14:55.930Z,3.91
2018-01-10T03:15:55.664Z,3.9
2018-01-10T03:16:55.917Z,3.9
2018-01-10T03:17:55.889Z,3.88
2018-01-10T03:18:55.862Z,3.93
2018-01-10T03:19:55.853Z,3.73
2018-01-10T03:20:55.852Z,3.84
2018-01-10T03:21:55.822Z,3.78
2018-01-10T03:22:55.809Z,3.72
2018-01-10T03:23:55.795Z,3.9
2018-01-10T03:24:55.778Z,3.91
2018-01-10T03:25:55.762Z,3.78
2018-01-10T03:26:55.748Z,3.84
2018-01-10T03:27:55.480Z,3.86
2018-01-10T03:28:55.731Z,3.79
2018-01-10T03:29:55.713Z,3.8
2018-01-10T03:30:55.701Z,3.78
2018-01-10T03:31:55.683Z,3.76
2018-01-10T03:32:55.660Z,3.75
2018-01-10T03:33:55.644Z,3.84
2018-01-10T03:34:55.630Z,3.86
2018-01-10T03:35:55.619Z,3.72
2018-01-10T03:36:55.610Z,3.78
2018-01-10T03:37:55.613Z,3.73
2018-01-10T03:38:55.584Z,3.73
2018-01-10T03:39:55.570Z,3.83
2018-01-10T03:40:55.543Z,3.7
2018-01-10T03:41:55.536Z,3.78
2018-01-10T03:42:55.522Z,3.73
2018-01-10T03:43:55.509Z,3.66
2018-01-10T03:44:55.485Z,3.69
2018-01-10T03:45:55.493Z,3.69
2018-01-10T03:46:55.460Z,3.62
2018-01-10T03:47:55.444Z,3.66
2018-01-10T03:48:55.439Z,3.68
2018-01-10T03:49:55.427Z,3.68
2018-01-10T03:50:55.426Z,3.6
2018-01-10T03:51:55.402Z,3.65
2018-01-10T03:52:55.384Z,3.57
2018-01-10T03:53:55.365Z,3.66
2018-01-10T03:54:55.349Z,3.68
2018-01-10T03:55:55.346Z,3.57
2018-01-10T03:56:55.314Z,3.66
2018-01-10T03:57:55.303Z,3.66
2018-01-10T03:58:55.304Z,3.6
2018-01-10T03:59:55.280Z,3.62
2018-01-10T04:00:55.258Z,3.66
2018-01-10T04:01:55.252Z,3.6
2018-01-10T04:02:55.229Z,3.66
2018-01-10T04:03:55.212Z,3.57
2018-01-10T04:04:54.954Z,3.58
2018-01-10T04:05:55.187Z,3.62
2018-01-10T04:06:54.923Z,3.62
2018-01-10T04:07:55.191Z,3.69
2018-01-10T04:08:55.143Z,3.68
2018-01-10T04:09:55.142Z,3.65
2018-01-10T04:10:55.135Z,3.65
2018-01-10T04:11:55.113Z,3.62
2018-01-10T04:12:55.085Z,3.73
2018-01-10T04:13:55.070Z,3.68
2018-01-10T04:14:55.066Z,3.76
2018-01-10T04:15:55.048Z,3.76
2018-01-10T04:16:55.029Z,3.75
2018-01-10T04:17:55.026Z,3.72
2018-01-10T04:18:55.008Z,3.83
2018-01-10T04:19:55.002Z,3.91
2018-01-10T04:20:54.967Z,3.84
2018-01-10T04:21:54.964Z,3.87
2018-01-10T04:22:54.680Z,3.84
2018-01-10T04:23:54.939Z,3.9
2018-01-10T04:24:54.911Z,3.9
2018-01-10T04:25:54.902Z,3.94
2018-01-10T04:26:54.885Z,3.91
2018-01-10T04:27:54.871Z,3.93
2018-01-10T04:28:54.859Z,3.93
2018-01-10T04:29:54.851Z,3.94
2018-01-10T04:30:54.820Z,3.96
2018-01-10T04:31:54.817Z,3.98
2018-01-10T04:32:54.807Z,3.93
2018-01-10T04:33:54.792Z,3.94
2018-01-10T04:34:54.774Z,3.91
2018-01-10T04:35:54.764Z,3.94
2018-01-10T04:36:54.758Z,3.87
2018-01-10T04:37:54.723Z,3.94
2018-01-10T04:38:54.729Z,3.97
2018-01-10T04:39:54.703Z,4.08
2018-01-10T04:40:54.682Z,4.05
2018-01-10T04:41:54.674Z,4.09
2018-01-10T04:42:54.658Z,4.06
2018-01-10T04:43:54.663Z,4.04
2018-01-10T04:44:54.636Z,4.04
2018-01-10T04:45:54.629Z,4.05
2018-01-10T04:46:54.596Z,4.09
2018-01-10T04:47:54.597Z,4.09
2018-01-10T04:48:54.578Z,3.98
2018-01-10T04:49:54.571Z,4.04
2018-01-10T04:50:54.549Z,4.04
2018-01-10T04:51:54.540Z,4.05
2018-01-10T04:52:54.511Z,4.09
2018-01-10T04:53:54.501Z,4.04
2018-01-10T04:54:54.495Z,4.05
2018-01-10T04:55:54.211Z,4.05
2018-01-10T04:56:54.459Z,4.05
2018-01-10T04:57:54.186Z,4.06
2018-01-10T04:58:54.439Z,4
2018-01-10T04:59:54.421Z,4.04
2018-01-10T05:00:54.409Z,4.06
2018-01-10T05:01:54.380Z,4.08
2018-01-10T05:02:54.408Z,4.06
2018-01-10T05:03:54.359Z,4.15
2018-01-10T05:04:54.351Z,4.14
2018-01-10T05:05:54.342Z,4.08
2018-01-10T05:06:54.072Z,4.11
2018-01-10T05:07:54.304Z,4.05
2018-01-10T05:08:54.281Z,4.05
2018-01-10T05:09:54.270Z,4.02
2018-01-10T05:10:54.258Z,4.08
2018-01-10T05:11:54.240Z,4.15
2018-01-10T05:12:54.234Z,4.18
2018-01-10T05:13:54.211Z,4.14
2018-01-10T05:14:54.216Z,4.09
2018-01-10T05:15:54.206Z,4.08
2018-01-10T05:16:54.179Z,4.05
2018-01-10T05:17:54.174Z,4.12
2018-01-10T05:18:54.154Z,4.11
2018-01-10T05:19:54.139Z,4.11
2018-01-10T05:20:54.119Z,4.08
2018-01-10T05:21:54.122Z,4.09
2018-01-10T05:22:53.835Z,4.15
2018-01-10T05:23:54.092Z,4.09
2018-01-10T05:24:53.800Z,4.06
2018-01-10T05:25:54.057Z,4.09
2018-01-10T05:26:54.044Z,4.09
2018-01-10T05:27:54.035Z,4.12
2018-01-10T05:28:54.000Z,4.12
2018-01-10T05:29:54.002Z,4.09
2018-01-10T05:30:53.986Z,4.09
2018-01-10T05:31:53.954Z,4.09
2018-01-10T05:32:53.950Z,4.12
2018-01-10T05:33:53.929Z,4.11
2018-01-10T05:34:53.915Z,4.14
2018-01-10T05:35:53.918Z,4.18
2018-01-10T05:36:53.888Z,4.11
2018-01-10T05:37:53.890Z,4.2
2018-01-10T05:38:53.351Z,4.16
2018-01-10T05:39:53.855Z,4.16
2018-01-10T05:40:53.843Z,4.18
2018-01-10T05:41:53.891Z,4.23
2018-01-10T05:42:53.562Z,4.26
2018-01-10T05:43:53.801Z,4.23
2018-01-10T05:44:53.794Z,4.14
2018-01-10T05:45:53.773Z,4.18
2018-01-10T05:46:53.746Z,4.15
2018-01-10T05:47:53.735Z,4.05
2018-01-10T05:48:53.726Z,4.08
2018-01-10T05:49:53.714Z,4.05
2018-01-10T05:50:53.725Z,4.05
2018-01-10T05:51:53.692Z,4
2018-01-10T05:52:53.673Z,4.08
2018-01-10T05:53:53.660Z,3.97
2018-01-10T05:54:53.389Z,4.02
2018-01-10T05:55:53.632Z,4.02
2018-01-10T05:56:53.608Z,4.02
2018-01-10T05:57:53.593Z,4.04
2018-01-10T05:58:53.589Z,4.09
2018-01-10T05:59:53.304Z,4.08
2018-01-10T06:00:53.547Z,4.06
2018-01-10T06:01:53.565Z,4
2018-01-10T06:02:53.533Z,4.04
2018-01-10T06:03:53.513Z,3.94
2018-01-10T06:04:53.504Z,3.87
2018-01-10T06:05:53.492Z,3.91
2018-01-10T06:06:53.475Z,3.97
2018-01-10T06:07:53.469Z,3.94
2018-01-10T06:08:53.445Z,3.96
2018-01-10T06:09:53.428Z,3.91
2018-01-10T06:10:53.427Z,3.86
2018-01-10T06:11:53.142Z,3.94
2018-01-10T06:12:53.397Z,4.02
2018-01-10T06:13:53.376Z,3.97
2018-01-10T06:14:53.353Z,3.97
2018-01-10T06:15:53.383Z,3.94
2018-01-10T06:16:53.320Z,3.96
2018-01-10T06:17:53.321Z,3.97
2018-01-10T06:18:53.300Z,3.94
2018-01-10T06:19:53.276Z,4
2018-01-10T06:20:53.271Z,3.96
2018-01-10T06:21:53.013Z,3.96
2018-01-10T06:22:52.986Z,3.91
2018-01-10T06:23:53.231Z,3.87
2018-01-10T06:24:53.210Z,3.93
2018-01-10T06:25:53.211Z,3.93
2018-01-10T06:26:53.191Z,3.94
2018-01-10T06:27:53.166Z,3.96
2018-01-10T06:28:53.157Z,3.97
2018-01-10T06:29:53.140Z,3.88
2018-01-10T06:30:53.127Z,3.97
2018-01-10T06:31:53.116Z,4
2018-01-10T06:32:53.097Z,3.94
2018-01-10T06:33:53.080Z,3.91
2018-01-10T06:34:53.070Z,3.97
2018-01-10T06:35:53.068Z,3.91
2018-01-10T06:36:53.041Z,3.94
2018-01-10T06:37:53.027Z,3.91
2018-01-10T06:38:53.018Z,4
2018-01-10T06:39:53.004Z,4.04
2018-01-10T06:40:52.989Z,3.98
2018-01-10T06:41:52.968Z,4.06
2018-01-10T06:42:52.952Z,4.08
2018-01-10T06:43:52.933Z,4.02
2018-01-10T06:44:52.923Z,4.09
2018-01-10T06:45:52.911Z,4.06
2018-01-10T06:46:52.902Z,4.06
2018-01-10T06:47:52.647Z,3.98
2018-01-10T06:48:52.617Z,4.08
2018-01-10T06:49:52.850Z,4.11
2018-01-10T06:50:52.839Z,4.05
2018-01-10T06:51:52.584Z,4.09
2018-01-10T06:52:52.808Z,4.12
2018-01-10T06:53:52.795Z,4
2018-01-10T06:54:52.777Z,4.2
2018-01-10T06:55:52.772Z,4.15
2018-01-10T06:56:52.769Z,4.2
2018-01-10T06:57:52.745Z,4.14
2018-01-10T06:58:52.719Z,4.14
2018-01-10T06:59:52.726Z,4.16
2018-01-10T07:00:52.705Z,4.18
2018-01-10T07:01:52.693Z,4.24
2018-01-10T07:02:52.685Z,4.2
2018-01-10T07:03:52.672Z,4.26
2018-01-10T07:04:52.639Z,4.23
2018-01-10T07:05:52.633Z,4.32
2018-01-10T07:06:52.365Z,4.22
2018-01-10T07:07:52.599Z,4.29
2018-01-10T07:08:52.602Z,4.33
2018-01-10T07:09:52.576Z,4.37
2018-01-10T07:10:52.563Z,4.4
2018-01-10T07:11:52.560Z,4.41
2018-01-10T07:12:52.527Z,4.36
2018-01-10T07:13:52.530Z,4.36
2018-01-10T07:14:52.508Z,4.34
2018-01-10T07:15:52.495Z,4.32
2018-01-10T07:16:52.490Z,4.33
2018-01-10T07:17:52.472Z,4.29
2018-01-10T07:18:52.466Z,4.36
2018-01-10T07:19:52.443Z,4.44
2018-01-10T07:20:52.425Z,4.36
2018-01-10T07:21:52.417Z,4.41
2018-01-10T07:22:52.135Z,4.48
2018-01-10T07:23:52.409Z,4.54
2018-01-10T07:24:52.370Z,4.5
2018-01-10T07:25:52.087Z,4.5
2018-01-10T07:26:52.074Z,4.5
2018-01-10T07:27:52.325Z,4.47
2018-01-10T07:28:52.309Z,4.58
2018-01-10T07:29:52.288Z,4.5
2018-01-10T07:30:52.279Z,4.44
2018-01-10T07:31:52.286Z,4.34
2018-01-10T07:32:52.265Z,4.34
2018-01-10T07:33:52.270Z,4.36
2018-01-10T07:34:51.965Z,4.37
2018-01-10T07:35:52.285Z,4.5
2018-01-10T07:36:52.214Z,4.5
2018-01-10T07:37:51.925Z,4.44
2018-01-10T07:38:52.170Z,4.45
2018-01-10T07:39:52.202Z,4.33
2018-01-10T07:40:52.143Z,4.37
2018-01-10T07:41:52.137Z,4.37
2018-01-10T07:42:52.564Z,4.34
2018-01-10T07:43:52.093Z,4.3
2018-01-10T07:44:52.097Z,4.34
2018-01-10T07:45:52.322Z,4.33
2018-01-10T07:46:51.826Z,4.33
2018-01-10T07:47:52.096Z,4.3
2018-01-10T07:48:52.035Z,4.33
2018-01-10T07:49:51.756Z,4.37
2018-01-10T07:50:52.024Z,4.34
2018-01-10T07:51:51.994Z,4.33
2018-01-10T07:52:51.969Z,4.3
2018-01-10T07:53:51.706Z,4.34
2018-01-10T07:54:51.955Z,4.34
2018-01-10T07:55:51.940Z,4.4
2018-01-10T07:56:51.663Z,4.36
2018-01-10T07:57:51.642Z,4.37
2018-01-10T07:58:51.885Z,4.44
2018-01-10T07:59:51.888Z,4.34
2018-01-10T08:00:51.861Z,4.41
2018-01-10T08:01:51.592Z,4.42
2018-01-10T08:02:51.843Z,4.37
2018-01-10T08:03:51.818Z,4.41
2018-01-10T08:04:51.813Z,4.4
2018-01-10T08:05:51.788Z,4.47
2018-01-10T08:06:51.811Z,4.45
2018-01-10T08:07:51.766Z,4.5
2018-01-10T08:08:51.755Z,4.5
2018-01-10T08:09:51.742Z,4.51
2018-01-10T08:10:51.751Z,4.47
2018-01-10T08:11:51.459Z,4.51
2018-01-10T08:12:51.709Z,4.6
2018-01-10T08:13:51.704Z,4.66
2018-01-10T08:14:51.686Z,4.6
2018-01-10T08:15:51.691Z,4.66
2018-01-10T08:16:51.668Z,4.65
2018-01-10T08:17:51.375Z,4.6
2018-01-10T08:18:51.643Z,4.69
2018-01-10T08:19:51.609Z,4.72
2018-01-10T08:20:51.604Z,4.67
2018-01-10T08:21:51.568Z,4.7
2018-01-10T08:22:51.576Z,4.67
2018-01-10T08:23:51.554Z,4.67
2018-01-10T08:24:51.525Z,4.67
2018-01-10T08:25:51.529Z,4.69
2018-01-10T08:26:51.522Z,4.66
2018-01-10T08:27:51.502Z,4.52
2018-01-10T08:28:51.483Z,4.58
2018-01-10T08:29:51.462Z,4.5
2018-01-10T08:30:51.458Z,4.5
2018-01-10T08:31:51.175Z,4.51
2018-01-10T08:32:51.474Z,4.55
2018-01-10T08:33:51.482Z,4.52
2018-01-10T08:34:51.181Z,4.65
2018-01-10T08:35:51.392Z,4.59
2018-01-10T08:36:51.377Z,4.58
2018-01-10T08:37:51.347Z,4.48
2018-01-10T08:38:51.094Z,4.54
2018-01-10T08:39:51.427Z,4.52
2018-01-10T08:40:51.083Z,4.51
2018-01-10T08:41:51.054Z,4.5
2018-01-10T08:42:51.295Z,4.51
2018-01-10T08:43:51.316Z,4.51
2018-01-10T08:44:51.034Z,4.5
2018-01-10T08:45:51.032Z,4.52
2018-01-10T08:46:51.248Z,4.51
2018-01-10T08:47:51.253Z,4.52
2018-01-10T08:48:51.243Z,4.51
2018-01-10T08:49:51.215Z,4.48
2018-01-10T08:50:51.228Z,4.52
2018-01-10T08:51:51.157Z,4.66
2018-01-10T08:52:51.163Z,4.69
2018-01-10T08:53:50.891Z,4.6
2018-01-10T08:54:51.161Z,4.67
2018-01-10T08:55:51.108Z,4.65
2018-01-10T08:56:51.087Z,4.67
2018-01-10T08:57:50.843Z,4.7
2018-01-10T08:58:51.080Z,4.7
2018-01-10T08:59:51.061Z,4.85
2018-01-10T09:00:51.042Z,4.69
2018-01-10T09:01:51.033Z,4.78
2018-01-10T09:02:51.052Z,4.82
2018-01-10T09:03:51.044Z,4.85
2018-01-10T09:04:50.986Z,4.89
2018-01-10T09:05:50.973Z,4.91
2018-01-10T09:06:50.964Z,4.92
2018-01-10T09:07:50.697Z,4.94
2018-01-10T09:08:50.934Z,4.99
2018-01-10T09:09:50.909Z,4.96
2018-01-10T09:10:50.919Z,4.92
2018-01-10T09:11:50.889Z,4.99
2018-01-10T09:12:50.902Z,4.97
2018-01-10T09:13:50.617Z,4.99
2018-01-10T09:14:50.861Z,4.97
2018-01-10T09:15:50.893Z,4.94
2018-01-10T09:16:50.843Z,4.91
2018-01-10T09:17:50.810Z,4.94
2018-01-10T09:18:50.807Z,4.97
2018-01-10T09:19:50.530Z,4.99
2018-01-10T09:20:50.788Z,5.09
2018-01-10T09:21:50.792Z,5.06
2018-01-10T09:22:50.764Z,5.04
2018-01-10T09:23:50.754Z,5.07
2018-01-10T09:24:50.741Z,5.09
2018-01-10T09:25:50.712Z,5.18
2018-01-10T09:26:50.742Z,5.22
2018-01-10T09:27:51.193Z,5.13
2018-01-10T09:28:50.672Z,5.13
2018-01-10T09:29:50.684Z,5.12
2018-01-10T09:30:50.637Z,5.22
2018-01-10T09:31:50.651Z,5.2
2018-01-10T09:32:50.678Z,5.25
2018-01-10T09:33:50.593Z,5.33
2018-01-10T09:34:50.849Z,5.25
2018-01-10T09:35:50.616Z,5.28
2018-01-10T09:36:50.563Z,5.28
2018-01-10T09:37:50.297Z,5.31
2018-01-10T09:38:50.272Z,5.39
2018-01-10T09:39:50.585Z,5.35
2018-01-10T09:40:50.498Z,5.46
2018-01-10T09:41:50.274Z,5.53
2018-01-10T09:42:50.472Z,5.53
2018-01-10T09:43:50.481Z,5.56
2018-01-10T09:44:50.465Z,5.58
2018-01-10T09:45:50.190Z,5.61
2018-01-10T09:46:50.446Z,5.65
2018-01-10T09:47:50.158Z,5.76
2018-01-10T09:48:50.476Z,5.83
2018-01-10T09:49:50.417Z,5.89
2018-01-10T09:50:50.136Z,5.85
2018-01-10T09:51:50.400Z,5.93
2018-01-10T09:52:50.364Z,5.96
2018-01-10T09:53:50.395Z,5.93
2018-01-10T09:54:50.375Z,5.86
2018-01-10T09:55:50.318Z,5.89
2018-01-10T09:56:50.321Z,5.93
2018-01-10T09:57:50.365Z,5.91
2018-01-10T09:58:50.291Z,5.89
2018-01-10T09:59:50.258Z,5.93
2018-01-10T10:00:50.310Z,5.9
2018-01-10T10:01:49.994Z,5.94
2018-01-10T10:02:50.260Z,5.93
2018-01-10T10:03:50.234Z,5.89
2018-01-10T10:04:50.232Z,5.94
2018-01-10T10:05:50.284Z,5.94
2018-01-10T10:06:49.934Z,5.93
2018-01-10T10:07:50.168Z,5.97
2018-01-10T10:08:50.156Z,6.01
2018-01-10T10:09:50.146Z,6.03
2018-01-10T10:10:50.151Z,6.06
2018-01-10T10:11:50.112Z,6.06
2018-01-10T10:12:49.835Z,6.09
2018-01-10T10:13:49.832Z,6.09
2018-01-10T10:14:50.076Z,6.06
2018-01-10T10:15:49.827Z,6.11
2018-01-10T10:16:50.057Z,6.12
2018-01-10T10:17:49.781Z,6.12
2018-01-10T10:18:50.076Z,6.14
2018-01-10T10:19:50.038Z,6.19
2018-01-10T10:20:50.045Z,6.22
2018-01-10T10:21:49.997Z,6.36
2018-01-10T10:22:50.025Z,6.27
2018-01-10T10:23:50.039Z,6.33
2018-01-10T10:24:49.986Z,6.38
2018-01-10T10:25:50.060Z,6.31
2018-01-10T10:26:49.723Z,6.49
2018-01-10T10:27:50.001Z,6.51
2018-01-10T10:28:49.942Z,6.55
2018-01-10T10:29:49.950Z,6.66
2018-01-10T10:30:49.903Z,6.67
2018-01-10T10:31:49.919Z,6.71
2018-01-10T10:32:49.976Z,6.89
2018-01-10T10:33:49.919Z,6.85
2018-01-10T10:34:49.930Z,6.98
2018-01-10T10:35:49.891Z,7.02
2018-01-10T10:36:49.890Z,6.98
2018-01-10T10:37:49.818Z,7.16
2018-01-10T10:38:49.832Z,7.13
2018-01-10T10:39:50.070Z,7.12
2018-01-10T10:40:49.775Z,7.23
2018-01-10T10:41:49.750Z,7.28
2018-01-10T10:42:49.498Z,7.34
2018-01-10T10:43:49.770Z,7.32
2018-01-10T10:44:49.789Z,7.28
2018-01-10T10:45:49.456Z,7.31
2018-01-10T10:46:49.804Z,7.27
2018-01-10T10:47:49.716Z,7.35
2018-01-10T10:48:49.686Z,7.28
2018-01-10T10:49:49.687Z,7.27
2018-01-10T10:50:49.396Z,7.31
2018-01-10T10:51:49.634Z,7.27
2018-01-10T10:52:49.624Z,7.34
2018-01-10T10:53:49.606Z,7.3
2018-01-10T10:54:49.619Z,7.28
2018-01-10T10:55:49.608Z,7.32
2018-01-10T10:56:49.347Z,7.39
2018-01-10T10:57:49.630Z,7.4
2018-01-10T10:58:49.580Z,7.39
2018-01-10T10:59:49.634Z,7.42
2018-01-10T11:00:49.586Z,7.42
2018-01-10T11:01:49.545Z,7.43
2018-01-10T11:02:49.566Z,7.42
2018-01-10T11:03:49.528Z,7.5
2018-01-10T11:04:49.505Z,7.49
2018-01-10T11:05:49.221Z,7.46
2018-01-10T11:06:49.474Z,7.46
2018-01-10T11:07:49.479Z,7.53
2018-01-10T11:08:49.439Z,7.6
2018-01-10T11:09:49.457Z,7.61
2018-01-10T11:10:49.430Z,7.68
2018-01-10T11:11:49.192Z,7.71
2018-01-10T11:12:49.423Z,7.74
2018-01-10T11:13:49.502Z,7.77
2018-01-10T11:14:49.668Z,7.77
2018-01-10T11:15:49.436Z,7.87
2018-01-10T11:16:49.371Z,7.89
2018-01-10T11:17:49.138Z,7.9
2018-01-10T11:18:49.404Z,7.98
2018-01-10T11:19:49.336Z,8.02
2018-01-10T11:20:49.344Z,8.15
2018-01-10T11:21:49.319Z,8.12
2018-01-10T11:22:49.310Z,8.18
2018-01-10T11:23:49.304Z,8.22
2018-01-10T11:24:49.300Z,8.28
2018-01-10T11:25:49.261Z,8.33
2018-01-10T11:26:49.308Z,8.28
2018-01-10T11:27:49.253Z,8.3
2018-01-10T11:28:49.045Z,8.38
2018-01-10T11:29:49.225Z,8.33
2018-01-10T11:30:49.208Z,8.36
2018-01-10T11:31:49.204Z,8.4
2018-01-10T11:32:49.187Z,8.4
2018-01-10T11:33:49.167Z,8.45
2018-01-10T11:34:49.162Z,8.4
2018-01-10T11:35:49.147Z,8.48
2018-01-10T11:36:49.198Z,8.38
2018-01-10T11:37:48.886Z,8.4
2018-01-10T11:38:49.177Z,8.36
2018-01-10T11:39:49.143Z,8.37
2018-01-10T11:40:49.168Z,8.36
2018-01-10T11:41:48.849Z,8.37
2018-01-10T11:42:48.837Z,8.38
2018-01-10T11:43:49.089Z,8.45
2018-01-10T11:44:48.848Z,8.45
2018-01-10T11:45:49.132Z,8.52
2018-01-10T11:46:49.075Z,8.47
2018-01-10T11:47:49.038Z,8.59
2018-01-10T11:48:49.014Z,8.58
2018-01-10T11:49:49.009Z,8.81
2018-01-10T11:50:48.789Z,8.81
2018-01-10T11:51:48.996Z,8.81
2018-01-10T11:52:48.977Z,8.92
2018-01-10T11:53:48.713Z,9.01
2018-01-10T11:54:48.989Z,9.01
2018-01-10T11:55:48.693Z,9.01
2018-01-10T11:56:49.096Z,9.1
2018-01-10T11:57:48.930Z,9.08
2018-01-10T11:58:49.257Z,9.2
2018-01-10T11:59:48.678Z,9.21
2018-01-10T12:00:48.931Z,9.21
2018-01-10T12:01:48.892Z,9.17
2018-01-10T12:02:48.895Z,9.18
2018-01-10T12:03:48.864Z,9.31
2018-01-10T12:04:48.874Z,9.26
2018-01-10T12:05:49.948Z,9.14
2018-01-10T12:06:48.819Z,9.18
2018-01-10T12:07:48.823Z,9.21
2018-01-10T12:08:48.578Z,9.13
2018-01-10T12:09:48.823Z,9.21
2018-01-10T12:10:48.804Z,9.05
2018-01-10T12:11:48.775Z,9.2
2018-01-10T12:12:48.777Z,9.13
2018-01-10T12:13:48.799Z,9.05
2018-01-10T12:14:48.785Z,9.17
2018-01-10T12:15:48.748Z,9.08
2018-01-10T12:16:48.752Z,9.1
2018-01-10T12:17:48.744Z,9.01
2018-01-10T12:18:48.728Z,8.99
2018-01-10T12:19:48.718Z,8.92
2018-01-10T12:20:48.812Z,8.81
2018-01-10T12:21:48.703Z,8.79
2018-01-10T12:22:48.701Z,8.81
2018-01-10T12:23:48.408Z,8.87
2018-01-10T12:24:48.427Z,8.91
2018-01-10T12:25:48.705Z,9.02
2018-01-10T12:26:48.373Z,9.08
2018-01-10T12:27:48.886Z,9.15
2018-01-10T12:28:48.662Z,9.15
2018-01-10T12:29:48.661Z,9.21
2018-01-10T12:30:48.087Z,9.08
2018-01-10T12:31:48.356Z,9.21
2018-01-10T12:32:48.599Z,9.15
2018-01-10T12:33:48.111Z,9.26
2018-01-10T12:34:48.320Z,9.23
2018-01-10T12:35:48.597Z,9.11
2018-01-10T12:36:48.280Z,9.17
2018-01-10T12:37:48.001Z,9.15
2018-01-10T12:38:48.548Z,9.15
2018-01-10T12:39:48.547Z,9.11
2018-01-10T12:40:48.533Z,9.1
2018-01-10T12:41:48.231Z,9.08
2018-01-10T12:42:48.222Z,8.99
2018-01-10T12:43:48.468Z,9.02
2018-01-10T12:44:48.259Z,9.14
2018-01-10T12:45:48.509Z,9.05
2018-01-10T12:46:48.505Z,9.14
2018-01-10T12:47:48.199Z,9.11
2018-01-10T12:48:48.451Z,9.08
2018-01-10T12:49:48.188Z,9.18
2018-01-10T12:50:48.450Z,9.08
2018-01-10T12:51:48.144Z,9.04
2018-01-10T12:52:48.109Z,9.01
2018-01-10T12:53:48.377Z,8.95
2018-01-10T12:54:48.090Z,8.87
2018-01-10T12:55:48.078Z,8.7
2018-01-10T12:56:48.066Z,8.79
2018-01-10T12:57:48.325Z,8.76
2018-01-10T12:58:48.343Z,8.7
2018-01-10T12:59:48.128Z,8.7
2018-01-10T13:00:48.340Z,8.7
2018-01-10T13:01:48.306Z,8.62
2018-01-10T13:02:48.368Z,8.52
2018-01-10T13:03:48.012Z,8.44
2018-01-10T13:04:48.023Z,8.38
2018-01-10T13:05:48.310Z,8.48
2018-01-10T13:06:48.301Z,8.45
2018-01-10T13:07:48.048Z,8.52
2018-01-10T13:08:48.407Z,8.48
2018-01-10T13:09:47.957Z,8.37
2018-01-10T13:10:47.917Z,8.38
2018-01-10T13:11:47.691Z,8.36
2018-01-10T13:12:47.930Z,8.3
2018-01-10T13:13:48.209Z,8.34
2018-01-10T13:14:48.184Z,8.3
2018-01-10T13:15:48.181Z,8.36
2018-01-10T13:16:47.952Z,8.25
2018-01-10T13:17:47.896Z,8.19
2018-01-10T13:18:47.974Z,8.12
2018-01-10T13:19:47.850Z,8.11
2018-01-10T13:20:47.831Z,8.05
2018-01-10T13:21:48.130Z,8.08
2018-01-10T13:22:48.054Z,8.04